Terminal Aerodrome Forecast
Issued by NWS Goodland, KS

Current Version | Previous Version | Text Only | Print | Product List | Glossary On
Versions: 1 2 3 4 5 6 7 8 9 10 11 12 13 14 15 16 17 18
160
FTUS43 KGLD 111346 AAC
TAFGLD
TAF AMD
KGLD 111346Z 1114/1212 35014KT P6SM SCT030 BKN100
      TEMPO 1115/1118 -SHSN BKN005
     FM111900 35012KT P6SM FEW030 BKN050
     FM112100 35009KT P6SM FEW040
     FM120000 VRB04KT P6SM SKC
     FM120300 24006KT P6SM SKC
     FM121100 20009KT P6SM SCT280=

USA.gov is the U.S. government's official web portal to all federal, state and local government web resources and services.